Time;durP1;ratioP1;P1;durP2;ratioP2;P2;SDS_P1;SDS_P2;PMS_P1;PMS_P2;Temp;Humidity;BMP_temperature;BMP_pressure;BME280_temperature;BME280_humidity;BME280_pressure;Samples;Min_cycle;Max_cycle;Signal;HPM_P1;HPM_P2
2022/12/31 00:00:06;;;;;;;4.80;4.30;;;;;;;;;;5013982;28;20204;-49
2022/12/31 00:02:32;;;;;;;4.30;3.90;;;;;;;;;;5014576;28;20289;-48
2022/12/31 00:04:58;;;;;;;4.40;4.00;;;;;;;;;;5013998;28;20288;-50
2022/12/31 00:07:24;;;;;;;4.23;3.93;;;;;;;;;;5014117;28;20201;-50
2022/12/31 00:09:51;;;;;;;4.17;3.87;;;;;;;;;;5014199;28;20198;-50
2022/12/31 00:12:17;;;;;;;4.03;3.73;;;;;;;;;;5014120;28;20229;-50
2022/12/31 00:14:43;;;;;;;4.00;3.70;;;;;;;;;;5014044;28;20212;-50
2022/12/31 00:17:09;;;;;;;3.73;3.53;;;;;;;;;;5013760;28;20260;-50
2022/12/31 00:19:35;;;;;;;4.27;3.87;;;;;;;;;;5014079;28;20672;-50
2022/12/31 00:22:01;;;;;;;3.63;3.43;;;;;;;;;;5013907;28;20232;-49
2022/12/31 00:24:29;;;;;;;4.07;3.77;;;;;;;;;;5014326;28;20625;-50
2022/12/31 00:26:57;;;;;;;4.37;4.07;;;;;;;;;;5013935;28;20206;-50
2022/12/31 00:29:23;;;;;;;4.47;4.07;;;;;;;;;;5011631;28;20194;-49
2022/12/31 00:31:49;;;;;;;4.20;3.90;;;;;;;;;;5013844;28;20313;-50
2022/12/31 00:34:15;;;;;;;4.00;3.70;;;;;;;;;;5011843;28;20225;-48
2022/12/31 00:37:01;;;;;;;6.77;6.20;;;;;;;;;;5011940;28;20236;-47
2022/12/31 00:39:27;;;;;;;3.43;3.23;;;;;;;;;;5001942;28;20307;-48
2022/12/31 00:41:53;;;;;;;3.80;3.50;;;;;;;;;;5013422;28;20664;-49
2022/12/31 00:44:21;;;;;;;3.90;3.43;;;;;;;;;;5013187;28;20205;-48
2022/12/31 00:46:47;;;;;;;3.80;3.50;;;;;;;;;;5012915;28;20691;-48
2022/12/31 00:49:13;;;;;;;4.00;3.70;;;;;;;;;;5013290;28;20592;-49
2022/12/31 00:51:39;;;;;;;4.33;3.90;;;;;;;;;;5012384;28;20705;-48
2022/12/31 00:54:05;;;;;;;4.33;3.83;;;;;;;;;;5013399;28;20571;-48
2022/12/31 00:56:32;;;;;;;4.30;3.90;;;;;;;;;;5013018;28;20712;-48
2022/12/31 00:58:58;;;;;;;4.27;3.97;;;;;;;;;;5010668;28;20209;-47
2022/12/31 01:01:26;;;;;;;3.97;3.60;;;;;;;;;;5012968;28;20201;-47
2022/12/31 01:03:53;;;;;;;4.03;3.70;;;;;;;;;;5011967;28;20262;-47
2022/12/31 01:06:20;;;;;;;3.93;3.63;;;;;;;;;;5012932;28;20197;-47
2022/12/31 01:08:47;;;;;;;4.33;4.03;;;;;;;;;;5013072;28;20200;-46
2022/12/31 01:11:22;;;;;;;4.33;4.00;;;;;;;;;;5012759;28;20638;-45
2022/12/31 01:13:49;;;;;;;4.90;4.50;;;;;;;;;;5012828;28;20204;-46
2022/12/31 01:16:16;;;;;;;5.50;5.00;;;;;;;;;;5012638;28;20582;-45
2022/12/31 01:18:43;;;;;;;5.63;5.13;;;;;;;;;;5012772;28;20289;-46
2022/12/31 01:21:10;;;;;;;5.83;5.37;;;;;;;;;;5012890;28;20205;-45
2022/12/31 01:23:36;;;;;;;5.47;4.97;;;;;;;;;;5012796;28;20243;-45
2022/12/31 01:26:04;;;;;;;6.00;5.50;;;;;;;;;;5012573;28;20205;-45
2022/12/31 01:28:30;;;;;;;5.97;5.57;;;;;;;;;;5012532;28;20229;-44
2022/12/31 01:30:56;;;;;;;5.40;5.00;;;;;;;;;;5012627;28;20488;-45
2022/12/31 01:33:22;;;;;;;5.97;5.23;;;;;;;;;;5012594;28;20201;-45
2022/12/31 01:35:49;;;;;;;5.30;4.90;;;;;;;;;;5012276;28;20225;-46
2022/12/31 01:38:15;;;;;;;6.00;5.03;;;;;;;;;;5012407;28;20233;-46
2022/12/31 01:40:41;;;;;;;5.47;5.00;;;;;;;;;;5012248;28;20265;-47
2022/12/31 01:43:13;;;;;;;5.47;5.07;;;;;;;;;;5012278;28;20216;-47
2022/12/31 01:45:40;;;;;;;6.40;5.90;;;;;;;;;;5012443;28;20204;-47
2022/12/31 01:48:07;;;;;;;6.70;6.20;;;;;;;;;;5012501;28;20201;-47
2022/12/31 01:50:36;;;;;;;6.53;6.03;;;;;;;;;;5012211;28;20720;-46
2022/12/31 01:53:04;;;;;;;8.07;7.47;;;;;;;;;;5012221;28;20209;-46
2022/12/31 01:55:32;;;;;;;8.73;8.03;;;;;;;;;;5012187;28;20272;-46
2022/12/31 01:57:59;;;;;;;10.70;8.77;;;;;;;;;;5012043;28;20287;-46
2022/12/31 02:00:25;;;;;;;9.80;9.00;;;;;;;;;;5012106;28;20256;-46
2022/12/31 02:02:52;;;;;;;9.30;8.60;;;;;;;;;;5012082;28;20197;-46
2022/12/31 02:05:19;;;;;;;9.60;8.77;;;;;;;;;;5011888;28;20263;-46
2022/12/31 02:07:47;;;;;;;10.27;9.47;;;;;;;;;;5011981;28;20205;-46
2022/12/31 02:10:14;;;;;;;9.80;9.00;;;;;;;;;;5012056;28;20259;-46
2022/12/31 02:12:40;;;;;;;9.63;8.77;;;;;;;;;;5011873;28;20229;-46
2022/12/31 02:15:06;;;;;;;9.63;8.73;;;;;;;;;;5011661;28;20284;-46
2022/12/31 02:17:35;;;;;;;8.70;8.00;;;;;;;;;;5011792;28;20232;-46
2022/12/31 02:20:19;;;;;;;8.80;8.10;;;;;;;;;;5011813;28;20205;-46
2022/12/31 02:23:03;;;;;;;7.97;7.37;;;;;;;;;;5011781;28;20702;-46
2022/12/31 02:25:46;;;;;;;7.83;7.23;;;;;;;;;;5011968;28;20202;-46
2022/12/31 02:28:17;;;;;;;7.90;7.10;;;;;;;;;;5011634;28;20239;-46
2022/12/31 02:30:46;;;;;;;7.87;7.07;;;;;;;;;;5011970;28;20284;-46
2022/12/31 02:33:15;;;;;;;8.33;7.63;;;;;;;;;;5011605;28;20205;-46
2022/12/31 02:35:46;;;;;;;7.13;6.53;;;;;;;;;;5011500;28;20718;-46
2022/12/31 02:38:13;;;;;;;7.17;6.57;;;;;;;;;;5011535;28;20249;-46
2022/12/31 02:40:40;;;;;;;6.90;6.40;;;;;;;;;;5011498;28;20323;-46
2022/12/31 02:43:06;;;;;;;6.80;6.10;;;;;;;;;;5011496;28;20201;-46
2022/12/31 02:45:34;;;;;;;6.17;5.67;;;;;;;;;;5011622;28;20201;-46
2022/12/31 02:48:11;;;;;;;6.40;5.90;;;;;;;;;;5011443;28;20189;-46
2022/12/31 02:50:54;;;;;;;6.10;5.50;;;;;;;;;;5011542;28;20288;-46
2022/12/31 02:53:24;;;;;;;5.53;5.13;;;;;;;;;;5011485;28;20210;-46
2022/12/31 02:55:55;;;;;;;5.30;4.90;;;;;;;;;;5011426;28;20320;-46
2022/12/31 03:02:12;;;;;;;4.90;4.50;;;;;;;;;;5011399;28;20201;-46
2022/12/31 03:06:45;;;;;;;5.73;4.80;;;;;;;;;;5011382;28;20216;-46
2022/12/31 03:09:11;;;;;;;5.90;5.50;;;;;;;;;;5011205;28;20197;-46
2022/12/31 03:14:22;;;;;;;5.23;4.73;;;;;;;;;;5011282;28;20197;-46
2022/12/31 03:16:48;;;;;;;5.40;4.90;;;;;;;;;;5011229;28;20600;-46
2022/12/31 03:27:29;;;;;;;4.73;4.43;;;;;;;;;;5013893;28;20209;-46
2022/12/31 03:29:55;;;;;;;4.00;3.70;;;;;;;;;;5014980;28;20205;-46
2022/12/31 03:32:21;;;;;;;3.90;3.60;;;;;;;;;;5014701;28;20209;-46
2022/12/31 03:34:48;;;;;;;4.00;3.23;;;;;;;;;;5014815;28;20304;-47
2022/12/31 03:37:14;;;;;;;2.83;2.63;;;;;;;;;;5014567;28;20240;-46
2022/12/31 03:39:41;;;;;;;2.83;2.63;;;;;;;;;;5014655;28;20237;-46
2022/12/31 03:42:07;;;;;;;2.40;2.20;;;;;;;;;;5014623;28;20247;-46
2022/12/31 03:44:33;;;;;;;4.70;2.40;;;;;;;;;;5014720;28;20278;-46
2022/12/31 03:46:59;;;;;;;2.07;1.87;;;;;;;;;;5014712;28;20716;-46
2022/12/31 03:49:25;;;;;;;2.43;1.93;;;;;;;;;;5014496;28;20216;-46
2022/12/31 03:51:52;;;;;;;2.43;1.70;;;;;;;;;;5014484;28;20225;-47
2022/12/31 03:54:18;;;;;;;1.63;1.53;;;;;;;;;;5014205;28;20699;-47
2022/12/31 03:56:44;;;;;;;2.20;1.93;;;;;;;;;;5014386;28;20268;-46
2022/12/31 03:59:10;;;;;;;1.93;1.80;;;;;;;;;;5014426;28;20611;-46
2022/12/31 04:01:36;;;;;;;2.17;1.97;;;;;;;;;;5014261;28;20212;-46
2022/12/31 04:04:02;;;;;;;2.80;2.13;;;;;;;;;;5014241;28;20197;-46
2022/12/31 04:06:28;;;;;;;2.17;1.90;;;;;;;;;;5014268;28;20209;-46
2022/12/31 04:08:55;;;;;;;1.50;1.20;;;;;;;;;;5014212;28;20205;-46
2022/12/31 04:11:21;;;;;;;1.93;1.40;;;;;;;;;;5014020;28;20212;-46
2022/12/31 04:13:47;;;;;;;1.30;1.20;;;;;;;;;;5014379;28;20190;-47
2022/12/31 04:16:13;;;;;;;1.20;1.10;;;;;;;;;;5013795;28;20194;-47
2022/12/31 04:18:39;;;;;;;1.30;1.20;;;;;;;;;;5014089;28;20229;-46
2022/12/31 04:21:05;;;;;;;0.90;0.90;;;;;;;;;;5013900;28;20201;-46
2022/12/31 04:23:31;;;;;;;1.17;1.07;;;;;;;;;;5013933;28;20212;-47
2022/12/31 04:25:59;;;;;;;1.63;0.90;;;;;;;;;;5014008;28;20282;-47
2022/12/31 04:28:25;;;;;;;1.73;1.10;;;;;;;;;;5013866;28;20208;-47
2022/12/31 04:30:50;;;;;;;0.77;0.77;;;;;;;;;;5013824;28;20198;-47
2022/12/31 04:33:16;;;;;;;0.90;0.90;;;;;;;;;;5013708;28;20225;-47
2022/12/31 04:35:43;;;;;;;0.90;0.90;;;;;;;;;;5013686;28;20587;-46
2022/12/31 04:38:09;;;;;;;1.50;0.90;;;;;;;;;;5013338;28;20306;-46
2022/12/31 04:41:15;;;;;;;1.10;1.00;;;;;;;;;;5013477;28;20237;-47
2022/12/31 04:43:22;;;;;;;1.07;1.00;;;;;;;;;;5013506;28;20292;-46
2022/12/31 04:45:48;;;;;;;1.60;1.10;;;;;;;;;;5013514;28;20201;-46
2022/12/31 04:48:14;;;;;;;1.23;1.17;;;;;;;;;;5013303;28;20545;-46
2022/12/31 04:50:40;;;;;;;0.97;0.97;;;;;;;;;;5013381;28;20201;-47
2022/12/31 04:53:06;;;;;;;1.10;1.00;;;;;;;;;;5013303;28;20212;-47
2022/12/31 04:55:32;;;;;;;1.63;1.20;;;;;;;;;;5013337;28;20205;-47
2022/12/31 04:57:58;;;;;;;2.23;1.37;;;;;;;;;;5013195;28;20241;-47
2022/12/31 05:00:25;;;;;;;1.80;1.10;;;;;;;;;;5013107;28;20482;-47
2022/12/31 05:02:51;;;;;;;1.03;1.03;;;;;;;;;;5013186;28;20212;-48
2022/12/31 05:05:17;;;;;;;1.00;1.00;;;;;;;;;;5012992;28;20198;-47
2022/12/31 05:07:43;;;;;;;1.27;1.00;;;;;;;;;;5013093;28;20596;-47
2022/12/31 05:10:09;;;;;;;1.00;0.93;;;;;;;;;;5012899;28;20198;-47
2022/12/31 05:12:35;;;;;;;1.30;1.17;;;;;;;;;;5013052;28;20713;-47
2022/12/31 05:15:01;;;;;;;1.50;1.20;;;;;;;;;;5012881;28;20207;-47
2022/12/31 05:17:28;;;;;;;1.20;1.20;;;;;;;;;;5012779;28;20632;-47
2022/12/31 05:19:54;;;;;;;1.10;1.10;;;;;;;;;;5012872;28;20224;-47
2022/12/31 05:22:29;;;;;;;1.57;1.40;;;;;;;;;;5012700;28;20206;-46
2022/12/31 05:24:55;;;;;;;2.00;1.30;;;;;;;;;;5012748;28;20197;-46
2022/12/31 05:27:21;;;;;;;3.27;1.60;;;;;;;;;;5012593;28;20248;-46
2022/12/31 05:29:47;;;;;;;1.40;1.30;;;;;;;;;;5012732;28;20201;-46
2022/12/31 05:32:13;;;;;;;1.50;1.40;;;;;;;;;;5012530;28;20297;-46
2022/12/31 05:34:40;;;;;;;2.07;1.40;;;;;;;;;;5012428;28;20308;-46
2022/12/31 05:37:06;;;;;;;1.60;1.50;;;;;;;;;;5012361;28;20236;-46
2022/12/31 05:39:32;;;;;;;3.53;1.70;;;;;;;;;;5012365;28;20233;-46
2022/12/31 05:41:58;;;;;;;1.47;1.37;;;;;;;;;;5012454;28;20672;-46
2022/12/31 05:44:24;;;;;;;1.70;1.60;;;;;;;;;;5012305;28;20288;-46
2022/12/31 05:46:50;;;;;;;2.17;1.90;;;;;;;;;;5012289;28;20272;-46
2022/12/31 05:49:16;;;;;;;1.67;1.57;;;;;;;;;;5011743;28;20209;-46
2022/12/31 05:51:44;;;;;;;1.87;1.77;;;;;;;;;;5012269;28;20220;-46
2022/12/31 05:54:10;;;;;;;2.47;1.80;;;;;;;;;;5012147;28;20404;-46
2022/12/31 05:56:36;;;;;;;2.07;1.97;;;;;;;;;;5012212;28;20599;-46
2022/12/31 05:59:02;;;;;;;1.60;1.50;;;;;;;;;;5012307;28;20210;-46
2022/12/31 06:01:28;;;;;;;2.27;2.07;;;;;;;;;;5012155;28;20652;-46
2022/12/31 06:03:54;;;;;;;2.50;2.30;;;;;;;;;;5012291;28;20236;-46
2022/12/31 06:06:20;;;;;;;2.70;2.50;;;;;;;;;;5011933;28;20233;-46
2022/12/31 06:08:49;;;;;;;3.20;2.90;;;;;;;;;;5011864;28;20252;-46
2022/12/31 06:11:15;;;;;;;2.93;2.73;;;;;;;;;;5012124;28;20210;-46
2022/12/31 06:13:43;;;;;;;3.03;2.77;;;;;;;;;;5011996;28;20213;-46
2022/12/31 06:16:09;;;;;;;3.50;3.20;;;;;;;;;;5011869;28;20197;-46
2022/12/31 06:18:35;;;;;;;3.80;3.53;;;;;;;;;;5011856;28;20707;-46
2022/12/31 06:21:01;;;;;;;3.50;3.20;;;;;;;;;;5011721;28;20233;-46
2022/12/31 06:23:27;;;;;;;3.43;3.13;;;;;;;;;;5011921;28;20220;-46
2022/12/31 06:25:54;;;;;;;3.30;3.00;;;;;;;;;;5011767;28;20201;-46
2022/12/31 06:28:20;;;;;;;3.33;3.03;;;;;;;;;;5011670;28;20276;-46
2022/12/31 06:30:46;;;;;;;2.73;2.53;;;;;;;;;;5011732;28;20281;-46
2022/12/31 06:33:12;;;;;;;3.67;2.80;;;;;;;;;;5011658;28;20193;-46
2022/12/31 06:35:38;;;;;;;2.90;2.60;;;;;;;;;;5011673;28;20603;-46
2022/12/31 06:38:05;;;;;;;2.60;2.40;;;;;;;;;;5011463;28;20245;-46
2022/12/31 06:40:30;;;;;;;2.50;2.03;;;;;;;;;;5011525;28;20747;-46
2022/12/31 06:42:58;;;;;;;1.77;1.67;;;;;;;;;;5011588;28;20193;-46
2022/12/31 06:45:24;;;;;;;1.97;1.60;;;;;;;;;;5011713;28;20221;-46
2022/12/31 06:47:50;;;;;;;1.40;1.30;;;;;;;;;;5011553;28;20197;-46
2022/12/31 06:50:16;;;;;;;1.50;1.40;;;;;;;;;;5011516;28;20248;-46
2022/12/31 06:52:42;;;;;;;1.50;1.40;;;;;;;;;;5011533;28;20221;-46
2022/12/31 06:55:09;;;;;;;1.50;1.40;;;;;;;;;;5011503;28;20672;-46
2022/12/31 06:57:35;;;;;;;1.57;1.20;;;;;;;;;;5011474;28;20221;-46
2022/12/31 07:00:03;;;;;;;1.10;1.10;;;;;;;;;;5011691;28;20221;-47
2022/12/31 07:02:37;;;;;;;1.20;1.10;;;;;;;;;;5014396;28;20202;-47
2022/12/31 07:05:07;;;;;;;1.30;1.20;;;;;;;;;;5015394;28;20523;-46
2022/12/31 07:07:37;;;;;;;1.87;1.23;;;;;;;;;;5015489;28;20252;-46
2022/12/31 07:10:10;;;;;;;1.60;1.30;;;;;;;;;;5015274;28;20652;-46
2022/12/31 07:12:42;;;;;;;1.57;1.47;;;;;;;;;;5015584;28;20212;-47
2022/12/31 07:15:14;;;;;;;1.50;1.40;;;;;;;;;;5015172;28;20585;-46
2022/12/31 07:17:44;;;;;;;4.37;1.70;;;;;;;;;;5015144;28;20229;-47
2022/12/31 07:20:12;;;;;;;1.70;1.60;;;;;;;;;;5015237;28;20256;-45
2022/12/31 07:22:38;;;;;;;1.57;1.40;;;;;;;;;;5015005;28;20198;-46
2022/12/31 07:25:05;;;;;;;1.60;1.50;;;;;;;;;;5014904;28;20661;-45
2022/12/31 07:27:39;;;;;;;2.23;1.70;;;;;;;;;;5015069;28;20277;-45
2022/12/31 07:30:09;;;;;;;1.63;1.53;;;;;;;;;;5014876;28;20315;-45
2022/12/31 07:32:42;;;;;;;1.47;1.37;;;;;;;;;;5014740;28;20607;-45
2022/12/31 07:35:11;;;;;;;6.67;3.27;;;;;;;;;;5014607;28;20221;-45
2022/12/31 07:37:42;;;;;;;3.10;2.50;;;;;;;;;;5014708;28;20233;-46
2022/12/31 07:40:11;;;;;;;3.50;2.30;;;;;;;;;;5014525;28;20248;-46
2022/12/31 07:42:44;;;;;;;1.87;1.77;;;;;;;;;;5014739;28;20609;-45
2022/12/31 07:45:14;;;;;;;1.90;1.80;;;;;;;;;;5014516;28;20645;-46
2022/12/31 07:47:41;;;;;;;2.20;1.90;;;;;;;;;;5014760;28;20248;-47
2022/12/31 07:50:13;;;;;;;2.47;2.30;;;;;;;;;;5014492;28;20619;-48
2022/12/31 07:52:39;;;;;;;2.63;2.43;;;;;;;;;;5014508;28;20205;-48
2022/12/31 07:55:05;;;;;;;3.43;2.90;;;;;;;;;;5014410;28;20211;-48
2022/12/31 07:57:35;;;;;;;2.00;1.90;;;;;;;;;;5014418;28;20321;-48
2022/12/31 08:00:04;;;;;;;2.00;1.90;;;;;;;;;;5014414;28;20202;-48
2022/12/31 08:02:39;;;;;;;2.10;1.90;;;;;;;;;;5014180;28;20202;-47
2022/12/31 08:05:11;;;;;;;1.97;1.87;;;;;;;;;;5014251;28;20605;-49
2022/12/31 08:07:43;;;;;;;2.00;1.90;;;;;;;;;;5014215;28;20216;-48
2022/12/31 08:10:12;;;;;;;1.80;1.70;;;;;;;;;;5014142;28;20273;-49
2022/12/31 08:12:38;;;;;;;2.50;2.30;;;;;;;;;;5013638;28;20297;-48
2022/12/31 08:15:11;;;;;;;2.20;2.00;;;;;;;;;;5014114;28;20229;-48
2022/12/31 08:17:37;;;;;;;1.80;1.70;;;;;;;;;;5013992;28;20601;-48
2022/12/31 08:20:04;;;;;;;2.00;1.90;;;;;;;;;;5013961;28;20541;-48
2022/12/31 08:22:42;;;;;;;1.80;1.70;;;;;;;;;;5013851;28;20256;-47
2022/12/31 08:25:13;;;;;;;1.80;1.70;;;;;;;;;;5013818;28;20212;-48
2022/12/31 08:27:43;;;;;;;1.50;1.40;;;;;;;;;;5013910;28;20215;-48
2022/12/31 08:30:10;;;;;;;1.60;1.50;;;;;;;;;;5013751;28;20757;-48
2022/12/31 08:32:41;;;;;;;4.43;1.80;;;;;;;;;;5013697;28;20248;-48
2022/12/31 08:35:13;;;;;;;2.77;1.70;;;;;;;;;;5013674;28;20252;-48
2022/12/31 08:37:42;;;;;;;2.00;1.80;;;;;;;;;;5013420;28;20715;-48
2022/12/31 08:40:13;;;;;;;1.80;1.70;;;;;;;;;;5013607;28;20237;-48
2022/12/31 08:42:40;;;;;;;2.50;2.30;;;;;;;;;;5013542;28;20201;-48
2022/12/31 08:45:13;;;;;;;1.90;1.80;;;;;;;;;;5013479;28;20209;-48
2022/12/31 08:47:43;;;;;;;1.70;1.60;;;;;;;;;;5013522;28;20194;-48
2022/12/31 08:50:12;;;;;;;1.90;1.80;;;;;;;;;;5013570;28;20554;-48
2022/12/31 08:52:38;;;;;;;1.77;1.67;;;;;;;;;;5012609;28;20217;-46
2022/12/31 08:55:06;;;;;;;1.90;1.80;;;;;;;;;;5013627;28;20205;-46
2022/12/31 08:57:34;;;;;;;1.70;1.60;;;;;;;;;;5012984;28;20284;-47
2022/12/31 09:00:05;;;;;;;1.57;1.47;;;;;;;;;;5013138;28;20197;-48
2022/12/31 09:03:01;;;;;;;1.47;1.30;;;;;;;;;;5013012;28;20205;-47
2022/12/31 09:05:32;;;;;;;1.40;1.30;;;;;;;;;;4932783;29;20219;-48
2022/12/31 09:08:05;;;;;;;1.20;1.10;;;;;;;;;;4996019;28;20646;-48
2022/12/31 09:10:38;;;;;;;1.43;1.33;;;;;;;;;;5013019;28;20669;-48
2022/12/31 09:13:10;;;;;;;1.57;1.30;;;;;;;;;;5012803;28;20574;-48
2022/12/31 09:15:40;;;;;;;1.60;1.50;;;;;;;;;;5013079;28;20209;-47
2022/12/31 09:18:07;;;;;;;1.90;1.80;;;;;;;;;;5013189;28;20233;-50
2022/12/31 09:20:34;;;;;;;2.37;2.17;;;;;;;;;;5013156;28;20198;-49
2022/12/31 09:23:01;;;;;;;2.33;2.17;;;;;;;;;;5013077;28;20614;-49
2022/12/31 09:25:28;;;;;;;2.80;2.60;;;;;;;;;;5011914;28;20620;-47
2022/12/31 09:28:03;;;;;;;3.20;2.90;;;;;;;;;;5012632;28;20193;-48
2022/12/31 09:30:34;;;;;;;3.33;3.03;;;;;;;;;;5012849;28;20209;-49
2022/12/31 09:33:02;;;;;;;2.97;2.77;;;;;;;;;;5012829;28;20244;-48
2022/12/31 09:35:32;;;;;;;4.77;3.23;;;;;;;;;;5012555;28;20288;-49
2022/12/31 09:38:00;;;;;;;3.40;2.97;;;;;;;;;;5012561;28;20287;-47
2022/12/31 09:40:35;;;;;;;3.63;3.37;;;;;;;;;;5012127;28;20624;-48
2022/12/31 09:43:14;;;;;;;3.27;2.80;;;;;;;;;;5012543;28;20203;-48
2022/12/31 09:45:50;;;;;;;2.70;2.50;;;;;;;;;;5012337;28;20205;-48
2022/12/31 09:48:31;;;;;;;2.83;2.63;;;;;;;;;;5012467;28;20280;-48
2022/12/31 09:51:06;;;;;;;3.23;3.00;;;;;;;;;;5012661;28;20266;-48
2022/12/31 09:53:40;;;;;;;2.60;2.40;;;;;;;;;;5012416;28;20221;-49
2022/12/31 09:56:11;;;;;;;2.80;2.50;;;;;;;;;;5012286;28;20205;-49
2022/12/31 09:58:41;;;;;;;3.10;2.80;;;;;;;;;;5012178;28;20661;-49
2022/12/31 10:01:13;;;;;;;3.50;3.20;;;;;;;;;;5012310;28;20197;-49
2022/12/31 10:03:51;;;;;;;3.53;3.23;;;;;;;;;;5010310;28;20621;-48
2022/12/31 10:06:21;;;;;;;2.33;2.13;;;;;;;;;;5012000;28;20205;-49
2022/12/31 10:08:56;;;;;;;1.90;1.80;;;;;;;;;;5011732;28;20272;-48
2022/12/31 10:11:27;;;;;;;1.70;1.60;;;;;;;;;;5011538;28;20197;-49
2022/12/31 10:14:02;;;;;;;1.80;1.70;;;;;;;;;;5012074;28;20260;-48
2022/12/31 10:16:40;;;;;;;1.70;1.60;;;;;;;;;;5011556;28;20208;-49
2022/12/31 10:19:22;;;;;;;1.60;1.50;;;;;;;;;;5011640;28;20381;-48
2022/12/31 10:21:53;;;;;;;1.60;1.50;;;;;;;;;;5011645;28;20201;-48
2022/12/31 10:24:31;;;;;;;1.90;1.43;;;;;;;;;;5011409;28;20665;-49
2022/12/31 10:27:01;;;;;;;1.70;1.60;;;;;;;;;;5011551;28;20664;-49
2022/12/31 10:29:34;;;;;;;2.00;1.80;;;;;;;;;;5011411;28;20285;-48
2022/12/31 10:32:13;;;;;;;1.80;1.70;;;;;;;;;;5012028;28;20209;-48
2022/12/31 10:34:46;;;;;;;2.37;2.17;;;;;;;;;;5011751;28;20236;-49
2022/12/31 10:37:15;;;;;;;2.10;2.00;;;;;;;;;;5011680;28;20360;-49
2022/12/31 10:39:49;;;;;;;3.53;2.37;;;;;;;;;;5010437;28;20763;-50
2022/12/31 10:42:27;;;;;;;2.90;1.90;;;;;;;;;;5011274;28;20890;-50
2022/12/31 10:45:18;;;;;;;1.53;1.43;;;;;;;;;;5011711;28;20193;-47
2022/12/31 10:48:04;;;;;;;2.40;1.60;;;;;;;;;;5011878;28;20202;-48
2022/12/31 10:50:39;;;;;;;2.33;1.60;;;;;;;;;;5011521;28;20280;-50
2022/12/31 10:53:30;;;;;;;1.40;1.30;;;;;;;;;;5011747;28;20303;-50
2022/12/31 10:56:08;;;;;;;1.30;1.20;;;;;;;;;;5011615;28;20333;-49
2022/12/31 10:59:07;;;;;;;1.50;1.40;;;;;;;;;;5011549;28;20300;-49
2022/12/31 11:01:41;;;;;;;1.50;1.40;;;;;;;;;;5011545;28;20256;-48
2022/12/31 11:04:34;;;;;;;1.40;1.30;;;;;;;;;;5010961;28;20201;-49
2022/12/31 11:07:15;;;;;;;1.50;1.40;;;;;;;;;;4987430;28;20201;-49
2022/12/31 11:10:01;;;;;;;1.47;1.33;;;;;;;;;;5011445;28;20286;-48
2022/12/31 11:12:41;;;;;;;1.20;1.10;;;;;;;;;;5011397;28;20209;-48
2022/12/31 11:15:16;;;;;;;1.10;1.00;;;;;;;;;;4989003;28;20197;-48
2022/12/31 11:17:49;;;;;;;2.33;1.07;;;;;;;;;;5011235;28;20766;-49
2022/12/31 11:20:26;;;;;;;1.20;1.03;;;;;;;;;;5011582;28;20256;-49
2022/12/31 11:22:56;;;;;;;1.77;1.07;;;;;;;;;;5011119;28;20208;-49
2022/12/31 11:25:29;;;;;;;1.33;0.63;;;;;;;;;;5008349;28;20206;-49
2022/12/31 11:28:10;;;;;;;0.93;0.93;;;;;;;;;;5009720;28;20200;-50
2022/12/31 11:30:44;;;;;;;1.03;0.80;;;;;;;;;;5008393;28;20208;-49
2022/12/31 11:33:16;;;;;;;1.00;0.87;;;;;;;;;;5010666;28;20207;-50
2022/12/31 11:35:49;;;;;;;0.80;0.80;;;;;;;;;;5010866;28;20284;-49
2022/12/31 11:38:20;;;;;;;1.30;0.90;;;;;;;;;;5010826;28;20929;-49
2022/12/31 11:40:54;;;;;;;0.90;0.90;;;;;;;;;;5010406;28;20716;-49
2022/12/31 11:43:26;;;;;;;0.70;0.70;;;;;;;;;;5010903;28;20252;-49
2022/12/31 11:46:01;;;;;;;0.83;0.83;;;;;;;;;;5011179;28;20202;-49
2022/12/31 11:48:30;;;;;;;0.87;0.87;;;;;;;;;;5013210;28;20555;-51
2022/12/31 11:51:02;;;;;;;0.93;0.90;;;;;;;;;;5014599;28;20206;-51
2022/12/31 11:53:34;;;;;;;2.10;1.10;;;;;;;;;;5014192;28;20205;-50
2022/12/31 11:56:05;;;;;;;1.40;1.00;;;;;;;;;;5014402;28;20194;-48
2022/12/31 11:58:31;;;;;;;1.67;1.30;;;;;;;;;;5013966;28;20229;-52
2022/12/31 12:00:59;;;;;;;1.50;1.40;;;;;;;;;;5013893;28;20537;-49
2022/12/31 12:03:26;;;;;;;1.53;1.20;;;;;;;;;;5014142;28;20304;-49
2022/12/31 12:05:55;;;;;;;1.57;1.20;;;;;;;;;;5013973;28;20193;-50
2022/12/31 12:08:21;;;;;;;1.27;1.17;;;;;;;;;;5013697;28;20200;-50
2022/12/31 12:10:48;;;;;;;1.53;1.10;;;;;;;;;;5013672;28;20574;-48
2022/12/31 12:13:19;;;;;;;1.10;1.00;;;;;;;;;;5013978;28;20212;-48
2022/12/31 12:15:47;;;;;;;1.50;1.10;;;;;;;;;;5013919;28;20204;-49
2022/12/31 12:18:18;;;;;;;1.63;1.23;;;;;;;;;;5013592;28;20279;-49
2022/12/31 12:20:45;;;;;;;1.37;1.07;;;;;;;;;;5013603;28;20225;-49
2022/12/31 12:23:17;;;;;;;1.43;1.20;;;;;;;;;;5013701;28;20252;-51
2022/12/31 12:25:43;;;;;;;1.20;1.10;;;;;;;;;;5013728;28;20297;-50
2022/12/31 12:28:18;;;;;;;1.40;1.30;;;;;;;;;;5013827;28;20193;-51
2022/12/31 12:30:44;;;;;;;1.80;1.30;;;;;;;;;;5013647;28;20205;-51
2022/12/31 12:33:15;;;;;;;1.00;0.97;;;;;;;;;;5011290;28;20197;-51
2022/12/31 12:35:41;;;;;;;4.30;1.87;;;;;;;;;;5012944;28;20296;-51
2022/12/31 12:38:12;;;;;;;2.43;1.60;;;;;;;;;;5012668;28;20332;-52
2022/12/31 12:40:40;;;;;;;1.87;1.50;;;;;;;;;;5012937;28;20245;-51
2022/12/31 12:43:05;;;;;;;3.20;1.50;;;;;;;;;;5013296;28;20376;-51
2022/12/31 12:45:39;;;;;;;3.30;1.90;;;;;;;;;;5012934;28;20711;-51
2022/12/31 12:48:08;;;;;;;1.83;1.30;;;;;;;;;;5013145;28;20366;-51
2022/12/31 12:50:37;;;;;;;1.60;1.27;;;;;;;;;;5012737;28;20644;-51
2022/12/31 12:53:19;;;;;;;1.47;1.37;;;;;;;;;;5012923;28;20197;-52
2022/12/31 12:55:53;;;;;;;2.87;1.77;;;;;;;;;;5013088;28;20546;-51
2022/12/31 12:58:32;;;;;;;3.13;1.87;;;;;;;;;;5011939;28;20746;-52
2022/12/31 13:01:02;;;;;;;2.30;1.50;;;;;;;;;;5012631;28;20200;-51
2022/12/31 13:03:37;;;;;;;2.10;1.27;;;;;;;;;;5012601;28;20222;-51
2022/12/31 13:06:09;;;;;;;2.03;1.57;;;;;;;;;;5012729;28;20217;-51
2022/12/31 13:08:45;;;;;;;2.50;1.67;;;;;;;;;;5012350;28;20280;-52
2022/12/31 13:11:24;;;;;;;3.90;2.07;;;;;;;;;;5012792;28;20209;-52
2022/12/31 13:13:54;;;;;;;2.20;1.70;;;;;;;;;;5012529;28;20706;-52
2022/12/31 13:16:23;;;;;;;7.03;1.73;;;;;;;;;;5012404;28;20233;-50
2022/12/31 13:18:54;;;;;;;4.53;1.80;;;;;;;;;;5012436;28;20269;-50
2022/12/31 13:21:36;;;;;;;3.20;2.00;;;;;;;;;;5012362;28;20213;-51
2022/12/31 13:24:06;;;;;;;1.97;1.60;;;;;;;;;;5012549;28;20194;-50
2022/12/31 13:26:38;;;;;;;2.27;1.30;;;;;;;;;;5012366;28;20221;-50
2022/12/31 13:29:05;;;;;;;3.87;1.80;;;;;;;;;;5012524;28;20197;-51
2022/12/31 13:31:33;;;;;;;2.07;1.60;;;;;;;;;;5011992;28;20201;-50
2022/12/31 13:34:03;;;;;;;1.90;1.50;;;;;;;;;;5012120;28;20253;-50
2022/12/31 13:36:31;;;;;;;2.67;1.50;;;;;;;;;;5011998;28;20205;-50
2022/12/31 13:38:59;;;;;;;4.30;1.57;;;;;;;;;;5012127;28;20233;-51
2022/12/31 13:41:27;;;;;;;3.73;1.50;;;;;;;;;;5011956;28;20197;-51
2022/12/31 13:43:57;;;;;;;3.77;1.50;;;;;;;;;;5011899;28;20219;-51
2022/12/31 13:46:26;;;;;;;2.33;1.40;;;;;;;;;;5012090;28;20229;-51
2022/12/31 13:48:53;;;;;;;3.03;1.53;;;;;;;;;;5012086;28;20232;-51
2022/12/31 13:51:23;;;;;;;3.20;1.77;;;;;;;;;;5011974;28;20197;-51
2022/12/31 13:53:53;;;;;;;3.80;1.30;;;;;;;;;;5011947;28;20198;-51
2022/12/31 13:56:22;;;;;;;2.87;1.50;;;;;;;;;;5011594;28;20202;-51
2022/12/31 13:58:52;;;;;;;3.00;1.80;;;;;;;;;;5011648;28;20240;-51
2022/12/31 14:01:21;;;;;;;2.93;1.57;;;;;;;;;;5011712;28;20283;-51
2022/12/31 14:03:52;;;;;;;2.60;1.40;;;;;;;;;;5011645;28;20251;-50
2022/12/31 14:06:22;;;;;;;3.40;1.60;;;;;;;;;;5011375;28;20304;-51
2022/12/31 14:08:48;;;;;;;4.60;1.50;;;;;;;;;;5011515;28;20198;-51
2022/12/31 14:11:20;;;;;;;2.53;1.70;;;;;;;;;;5011183;28;20212;-51
2022/12/31 14:13:56;;;;;;;4.27;1.40;;;;;;;;;;5011473;28;20204;-52
2022/12/31 14:16:26;;;;;;;3.93;1.50;;;;;;;;;;5011295;28;20283;-51
2022/12/31 14:18:57;;;;;;;2.40;1.50;;;;;;;;;;5011349;28;20213;-51
2022/12/31 14:21:26;;;;;;;4.40;1.80;;;;;;;;;;5011294;28;20194;-50
2022/12/31 14:23:58;;;;;;;3.57;1.60;;;;;;;;;;5011311;28;20653;-51
2022/12/31 14:26:27;;;;;;;2.87;1.83;;;;;;;;;;5011308;28;20244;-51
2022/12/31 14:28:58;;;;;;;3.20;1.67;;;;;;;;;;5011455;28;20190;-51
2022/12/31 14:31:29;;;;;;;2.27;1.57;;;;;;;;;;5011250;28;20656;-50
2022/12/31 14:33:57;;;;;;;2.70;1.60;;;;;;;;;;5011417;28;20210;-51
2022/12/31 14:36:27;;;;;;;3.63;1.27;;;;;;;;;;5010961;28;20296;-51
2022/12/31 14:39:05;;;;;;;3.83;1.50;;;;;;;;;;5011069;28;20252;-50
2022/12/31 14:41:39;;;;;;;4.90;1.67;;;;;;;;;;5011014;28;20613;-50
2022/12/31 14:44:12;;;;;;;3.53;1.43;;;;;;;;;;5011074;28;20240;-50
2022/12/31 14:46:48;;;;;;;2.70;1.30;;;;;;;;;;5011151;28;20212;-50
2022/12/31 14:49:19;;;;;;;1.73;1.40;;;;;;;;;;5011086;28;20292;-50
2022/12/31 14:51:45;;;;;;;2.73;1.30;;;;;;;;;;5010941;28;20228;-49
2022/12/31 14:54:26;;;;;;;2.97;1.40;;;;;;;;;;5011083;28;20265;-50
2022/12/31 14:56:52;;;;;;;2.00;1.20;;;;;;;;;;5010997;28;20209;-50
2022/12/31 14:59:24;;;;;;;3.17;1.53;;;;;;;;;;5010907;28;20236;-50
2022/12/31 15:01:51;;;;;;;2.50;1.60;;;;;;;;;;5011047;28;20212;-50
2022/12/31 15:04:29;;;;;;;3.50;1.40;;;;;;;;;;5010968;28;20224;-49
2022/12/31 15:06:58;;;;;;;3.03;1.50;;;;;;;;;;5010996;28;20198;-49
2022/12/31 15:09:36;;;;;;;3.77;1.50;;;;;;;;;;5010838;28;20204;-49
2022/12/31 15:12:10;;;;;;;3.33;1.60;;;;;;;;;;5010854;28;20620;-49
2022/12/31 15:15:00;;;;;;;1.77;1.10;;;;;;;;;;5011026;28;20209;-49